Time;durP1;ratioP1;P1;durP2;ratioP2;P2;SDS_P1;SDS_P2;PMS_P1;PMS_P2;Temp;Humidity;BMP_temperature;BMP_pressure;BME280_temperature;BME280_humidity;BME280_pressure;Samples;Min_cycle;Max_cycle;Signal;HPM_P1;HPM_P2
2023/02/23 00:01:44;;;;;;;24.13;10.82;;;9.40;99.90;;;;;;4966968;28;20070;-76
2023/02/23 00:04:10;;;;;;;25.35;10.50;;;9.40;99.90;;;;;;4964335;28;20027;-76
2023/02/23 00:06:37;;;;;;;22.70;10.40;;;9.40;99.90;;;;;;4964293;28;20041;-76
2023/02/23 00:09:22;;;;;;;27.92;12.98;;;9.30;99.90;;;;;;4963604;28;20034;-76
2023/02/23 00:11:57;;;;;;;29.92;11.65;;;9.30;99.90;;;;;;4967323;28;20031;-77
2023/02/23 00:14:29;;;;;;;30.48;11.77;;;9.30;99.90;;;;;;4958894;28;20375;-76
2023/02/23 00:16:56;;;;;;;28.75;11.40;;;9.30;99.90;;;;;;4967009;28;20403;-76
2023/02/23 00:19:23;;;;;;;25.73;11.85;;;9.30;99.90;;;;;;4964184;28;20035;-76
2023/02/23 00:21:50;;;;;;;21.75;11.05;;;9.30;99.90;;;;;;4966791;28;20046;-76
2023/02/23 00:24:20;;;;;;;22.38;11.00;;;9.30;99.90;;;;;;4947906;28;20038;-76
2023/02/23 00:26:47;;;;;;;23.80;11.88;;;9.30;99.90;;;;;;4967115;28;20037;-76
2023/02/23 00:29:23;;;;;;;25.92;12.10;;;9.30;99.90;;;;;;4963544;28;20550;-76
2023/02/23 00:31:50;;;;;;;20.77;10.10;;;9.30;99.90;;;;;;4966750;28;20126;-76
2023/02/23 00:34:20;;;;;;;29.17;12.05;;;9.30;99.90;;;;;;4964987;28;20106;-77
2023/02/23 00:36:50;;;;;;;28.85;12.15;;;9.20;99.90;;;;;;4966760;28;20137;-76
2023/02/23 00:39:17;;;;;;;29.25;12.63;;;9.20;99.90;;;;;;4963457;28;20042;-76
2023/02/23 00:41:45;;;;;;;31.75;13.65;;;9.20;99.90;;;;;;4963803;28;20102;-76
2023/02/23 00:44:14;;;;;;;26.83;11.73;;;9.20;99.90;;;;;;4947891;28;20106;-75
2023/02/23 00:46:42;;;;;;;38.65;12.48;;;9.20;99.90;;;;;;4963487;28;20426;-76
2023/02/23 00:49:09;;;;;;;29.27;11.93;;;9.30;99.90;;;;;;4953267;28;20031;-76
2023/02/23 00:51:36;;;;;;;25.15;11.77;;;9.30;99.90;;;;;;4957489;28;20089;-76
2023/02/23 00:54:02;;;;;;;27.40;12.70;;;9.30;99.90;;;;;;4963284;28;20041;-76
2023/02/23 00:56:28;;;;;;;31.45;13.18;;;9.30;99.90;;;;;;4965868;28;20046;-75
2023/02/23 00:58:55;;;;;;;28.35;11.85;;;9.30;99.90;;;;;;4963861;28;20039;-75
2023/02/23 01:01:24;;;;;;;27.60;11.48;;;9.30;99.90;;;;;;4962615;28;20019;-76
2023/02/23 01:03:53;;;;;;;31.10;11.43;;;9.30;99.90;;;;;;4963168;28;20030;-76
2023/02/23 01:06:19;;;;;;;26.35;11.80;;;9.30;99.90;;;;;;4965818;28;20449;-76
2023/02/23 01:08:48;;;;;;;25.30;11.68;;;9.30;99.90;;;;;;4962714;28;20113;-76
2023/02/23 01:11:21;;;;;;;28.75;10.77;;;9.30;99.90;;;;;;4965802;28;20034;-75
2023/02/23 01:13:50;;;;;;;24.98;12.25;;;9.30;99.90;;;;;;4946809;28;20031;-75
2023/02/23 01:16:19;;;;;;;28.25;12.15;;;9.20;99.90;;;;;;4965808;28;20082;-75
2023/02/23 01:18:45;;;;;;;22.52;11.10;;;9.20;99.90;;;;;;4962759;28;20031;-76
2023/02/23 01:21:22;;;;;;;33.55;13.38;;;9.20;99.90;;;;;;4965356;28;20031;-76
2023/02/23 01:23:49;;;;;;;38.33;12.43;;;9.30;99.90;;;;;;4964044;28;20737;-75
2023/02/23 01:26:25;;;;;;;30.40;12.45;;;9.30;99.90;;;;;;4946093;28;20041;-75
2023/02/23 01:29:01;;;;;;;33.28;13.48;;;9.30;99.90;;;;;;4946701;28;20509;-75
2023/02/23 01:31:29;;;;;;;29.75;12.13;;;9.30;99.90;;;;;;4962592;28;20038;-76
2023/02/23 01:34:00;;;;;;;32.13;12.43;;;9.30;99.90;;;;;;4962552;28;20033;-75
2023/02/23 01:36:30;;;;;;;27.00;10.60;;;9.30;99.90;;;;;;4965555;28;20054;-76
2023/02/23 01:38:58;;;;;;;25.52;11.23;;;9.30;99.90;;;;;;4963480;28;20102;-76
2023/02/23 01:41:27;;;;;;;28.90;13.88;;;9.30;99.90;;;;;;4962286;28;20438;-77
2023/02/23 01:44:13;;;;;;;29.05;11.95;;;9.30;99.90;;;;;;4963756;28;20027;-77
2023/02/23 01:46:42;;;;;;;25.77;11.32;;;9.30;99.90;;;;;;4943249;28;20493;-76
2023/02/23 01:49:19;;;;;;;26.90;10.40;;;9.30;99.90;;;;;;4962483;28;20089;-76
2023/02/23 01:51:58;;;;;;;35.40;13.75;;;9.30;99.90;;;;;;4965470;28;20035;-76
2023/02/23 01:54:37;;;;;;;29.75;13.88;;;9.20;99.90;;;;;;4956662;28;20506;-76
2023/02/23 01:57:06;;;;;;;30.33;11.68;;;9.20;99.90;;;;;;4963573;28;20062;-76
2023/02/23 01:59:43;;;;;;;31.45;12.40;;;9.20;99.90;;;;;;4964205;28;20102;-76
2023/02/23 02:02:09;;;;;;;25.80;11.10;;;9.20;99.90;;;;;;4962727;28;20034;-76
2023/02/23 02:04:44;;;;;;;27.65;11.68;;;9.30;99.90;;;;;;4955449;28;20024;-76
2023/02/23 02:07:21;;;;;;;30.33;12.02;;;9.20;99.90;;;;;;4945381;28;20032;-76
2023/02/23 02:12:50;;;;;;;29.90;11.50;;;9.20;99.90;;;;;;4962210;28;20059;-76
2023/02/23 02:15:17;;;;;;;22.95;11.23;;;9.30;99.90;;;;;;4968605;28;20034;-76
2023/02/23 02:18:22;;;;;;;28.65;11.95;;;9.30;99.90;;;;;;4962071;28;20429;-76
2023/02/23 02:21:21;;;;;;;26.42;11.10;;;9.20;99.90;;;;;;4935755;29;20112;-76
2023/02/23 02:24:11;;;;;;;27.50;12.52;;;9.20;99.90;;;;;;4959732;28;20059;-76
2023/02/23 02:27:00;;;;;;;28.23;12.55;;;9.20;99.90;;;;;;4964750;28;20042;-74
2023/02/23 02:29:43;;;;;;;26.52;11.52;;;9.20;99.90;;;;;;4959795;28;20406;-75
2023/02/23 02:32:30;;;;;;;30.13;12.88;;;9.20;99.90;;;;;;4963312;28;20062;-74
2023/02/23 02:35:36;;;;;;;33.85;11.77;;;9.20;99.90;;;;;;4972198;28;20097;-76
2023/02/23 02:38:34;;;;;;;46.55;12.93;;;9.30;99.90;;;;;;4962765;28;20050;-76
2023/02/23 02:41:19;;;;;;;22.77;10.98;;;9.30;99.90;;;;;;4968385;28;20121;-75
2023/02/23 02:44:25;;;;;;;31.50;12.70;;;9.30;99.90;;;;;;4965632;28;20242;-75
2023/02/23 02:46:59;;;;;;;30.00;11.13;;;9.20;99.90;;;;;;4968934;28;20031;-76
2023/02/23 02:49:31;;;;;;;30.65;11.63;;;9.20;99.90;;;;;;4961029;28;20045;-76
2023/02/23 02:52:14;;;;;;;33.20;12.88;;;9.20;99.90;;;;;;4968099;28;20125;-76
2023/02/23 02:54:52;;;;;;;28.00;11.35;;;9.20;99.90;;;;;;4969117;28;20490;-76
2023/02/23 02:57:22;;;;;;;29.55;14.60;;;9.20;99.90;;;;;;4965274;28;20063;-76
2023/02/23 04:19:27;;;;;;;24.92;10.57;;;9.20;99.90;;;;;;4968636;28;20037;-76
2023/02/23 04:21:53;;;;;;;41.20;12.25;;;9.30;99.90;;;;;;4955355;28;20031;-76
2023/02/23 04:24:19;;;;;;;24.90;12.13;;;9.30;99.90;;;;;;4959450;28;20039;-76
2023/02/23 04:26:45;;;;;;;29.70;13.55;;;9.30;99.90;;;;;;4968662;28;20109;-76
2023/02/23 04:29:11;;;;;;;42.28;14.00;;;9.30;99.90;;;;;;4967183;28;20073;-77
2023/02/23 04:31:37;;;;;;;39.13;13.30;;;9.30;99.90;;;;;;4967198;28;20545;-76
2023/02/23 04:34:03;;;;;;;33.80;13.55;;;9.30;99.90;;;;;;4966678;28;20045;-74
2023/02/23 04:36:29;;;;;;;37.30;14.00;;;9.40;99.90;;;;;;4960832;28;20098;-75
2023/02/23 04:38:55;;;;;;;27.58;11.90;;;9.40;99.90;;;;;;4959006;28;20062;-75
2023/02/23 04:41:21;;;;;;;32.67;12.43;;;9.40;99.90;;;;;;4965286;28;20069;-75
2023/02/23 04:43:47;;;;;;;25.17;12.82;;;9.40;99.90;;;;;;4968167;28;20451;-75
2023/02/23 04:46:13;;;;;;;34.28;12.55;;;9.40;99.90;;;;;;4964386;28;20533;-76
2023/02/23 04:48:39;;;;;;;29.48;12.65;;;9.40;99.90;;;;;;4968005;28;20039;-75
2023/02/23 04:51:05;;;;;;;44.88;13.95;;;9.40;99.90;;;;;;4964309;28;20057;-75
2023/02/23 04:53:31;;;;;;;38.75;12.43;;;9.50;99.90;;;;;;4968367;28;20059;-75
2023/02/23 04:55:56;;;;;;;34.58;12.10;;;9.50;99.90;;;;;;4964023;28;20545;-75
2023/02/23 04:58:22;;;;;;;34.33;12.45;;;9.40;99.90;;;;;;4967956;28;20066;-75
2023/02/23 05:00:48;;;;;;;36.83;13.32;;;9.40;99.90;;;;;;4964154;28;20029;-76
2023/02/23 05:03:16;;;;;;;33.10;12.23;;;9.50;99.90;;;;;;4968161;28;20049;-75
2023/02/23 05:05:42;;;;;;;32.42;12.13;;;9.40;99.90;;;;;;4964010;28;20517;-75
2023/02/23 05:08:08;;;;;;;38.45;12.57;;;9.50;99.90;;;;;;4968483;28;20038;-75
2023/02/23 05:10:34;;;;;;;28.80;12.98;;;9.40;99.90;;;;;;4959439;28;20069;-75
2023/02/23 05:13:00;;;;;;;27.50;13.05;;;9.40;99.90;;;;;;4951973;28;20051;-75
2023/02/23 05:15:26;;;;;;;42.63;13.95;;;9.50;99.90;;;;;;4963454;28;20069;-75
2023/02/23 05:17:54;;;;;;;36.00;13.18;;;9.50;99.90;;;;;;4967898;28;20061;-75
2023/02/23 05:20:21;;;;;;;32.47;13.55;;;9.40;99.90;;;;;;4963442;28;20023;-76
2023/02/23 05:22:47;;;;;;;31.58;12.73;;;9.40;99.90;;;;;;4968465;28;20150;-75
2023/02/23 05:25:13;;;;;;;35.80;15.20;;;9.50;99.90;;;;;;4967651;28;20509;-76
2023/02/23 05:27:39;;;;;;;26.13;11.35;;;9.50;99.90;;;;;;4950546;28;20116;-76
2023/02/23 05:30:07;;;;;;;32.85;12.68;;;9.40;99.90;;;;;;4960200;28;20035;-76
2023/02/23 05:32:33;;;;;;;34.53;12.38;;;9.40;99.90;;;;;;4971724;28;20062;-76
2023/02/23 05:35:00;;;;;;;28.33;11.57;;;9.50;99.90;;;;;;4959647;28;20575;-76
2023/02/23 05:37:25;;;;;;;24.23;12.35;;;9.60;99.90;;;;;;4948933;28;20138;-76
2023/02/23 05:39:51;;;;;;;45.60;15.10;;;9.60;99.90;;;;;;4932534;28;20162;-77
2023/02/23 05:42:17;;;;;;;44.10;14.15;;;9.50;99.90;;;;;;4962062;28;20031;-77
2023/02/23 05:44:43;;;;;;;27.00;11.57;;;9.60;99.90;;;;;;4960070;28;20039;-76
2023/02/23 05:47:09;;;;;;;31.33;13.40;;;9.60;99.90;;;;;;4966431;28;20035;-75
2023/02/23 05:49:36;;;;;;;35.25;14.07;;;9.60;99.90;;;;;;4966184;28;20027;-75
2023/02/23 05:52:02;;;;;;;27.45;13.02;;;9.70;99.90;;;;;;4956162;28;20035;-75
2023/02/23 05:54:27;;;;;;;30.92;12.38;;;9.60;99.90;;;;;;4963487;28;20035;-75
2023/02/23 05:56:53;;;;;;;27.60;12.48;;;9.70;99.90;;;;;;4972432;28;20035;-77
2023/02/23 05:59:19;;;;;;;36.53;12.43;;;9.60;99.90;;;;;;4967097;28;20031;-76
2023/02/23 06:01:45;;;;;;;29.55;12.32;;;9.60;99.90;;;;;;4970934;28;20045;-76
2023/02/23 06:04:11;;;;;;;31.90;11.95;;;9.60;99.90;;;;;;4969697;28;20236;-76
2023/02/23 06:06:36;;;;;;;28.83;13.35;;;9.60;99.90;;;;;;4969993;28;20081;-76
2023/02/23 06:09:03;;;;;;;31.50;12.77;;;9.60;99.90;;;;;;4965454;28;20505;-75
2023/02/23 06:11:29;;;;;;;27.70;12.65;;;9.60;99.90;;;;;;4959060;28;20116;-77
2023/02/23 06:13:58;;;;;;;33.55;12.80;;;9.50;99.90;;;;;;4957089;28;20039;-76
2023/02/23 06:16:25;;;;;;;30.75;12.25;;;9.50;99.90;;;;;;4963631;28;20027;-76
2023/02/23 06:18:51;;;;;;;29.70;12.77;;;9.50;99.90;;;;;;4953230;28;20035;-76
2023/02/23 06:21:16;;;;;;;25.98;12.93;;;9.50;99.90;;;;;;4952005;28;20026;-77
2023/02/23 06:23:42;;;;;;;23.60;10.95;;;9.50;99.90;;;;;;4954822;28;20408;-74
2023/02/23 06:26:08;;;;;;;30.45;12.35;;;9.50;99.90;;;;;;4951983;28;20476;-73
2023/02/23 06:28:35;;;;;;;30.77;12.32;;;9.50;99.90;;;;;;4953145;28;20500;-73
2023/02/23 06:31:01;;;;;;;30.40;12.98;;;9.40;99.90;;;;;;4950696;28;20047;-74
2023/02/23 06:33:26;;;;;;;33.47;13.15;;;9.40;99.90;;;;;;4957116;28;20094;-69
2023/02/23 06:35:53;;;;;;;28.45;12.55;;;9.40;99.90;;;;;;4954837;28;20035;-75
2023/02/23 06:38:20;;;;;;;27.42;13.60;;;9.40;99.90;;;;;;4966370;28;20038;-71
2023/02/23 06:40:45;;;;;;;27.15;13.57;;;9.50;99.90;;;;;;4969652;28;20028;-70
2023/02/23 06:43:11;;;;;;;31.38;11.95;;;9.50;99.90;;;;;;4965308;28;20113;-71
2023/02/23 06:45:38;;;;;;;32.72;10.93;;;9.50;99.90;;;;;;4971098;28;20106;-69
2023/02/23 06:48:04;;;;;;;31.00;12.95;;;9.50;99.90;;;;;;4962737;28;20055;-70
2023/02/23 06:50:30;;;;;;;27.05;12.05;;;9.50;99.90;;;;;;4972692;28;20031;-69
2023/02/23 06:52:56;;;;;;;29.50;12.38;;;9.50;99.90;;;;;;4960335;28;20530;-71
2023/02/23 06:55:22;;;;;;;50.20;15.70;;;9.50;99.90;;;;;;4971845;28;20161;-69
2023/02/23 06:57:50;;;;;;;37.08;11.90;;;9.50;99.90;;;;;;4961909;28;20035;-71
2023/02/23 07:00:16;;;;;;;36.42;13.40;;;9.50;99.90;;;;;;4971460;28;20031;-73
2023/02/23 07:02:43;;;;;;;26.75;11.23;;;9.50;99.90;;;;;;4958861;28;20034;-71
2023/02/23 07:05:10;;;;;;;28.02;12.48;;;9.50;99.90;;;;;;4955493;28;20047;-72
2023/02/23 07:07:36;;;;;;;31.65;12.90;;;9.50;99.90;;;;;;4958812;28;20028;-71
2023/02/23 07:10:03;;;;;;;40.05;14.80;;;9.50;99.90;;;;;;4970574;28;20039;-72
2023/02/23 07:12:30;;;;;;;41.63;14.73;;;9.60;99.90;;;;;;4958576;28;20058;-72
2023/02/23 07:14:56;;;;;;;31.88;12.18;;;9.60;99.90;;;;;;4963727;28;20023;-71
2023/02/23 07:17:22;;;;;;;27.50;12.77;;;9.60;99.90;;;;;;4960130;28;20045;-72
2023/02/23 07:19:48;;;;;;;31.48;13.20;;;9.60;99.90;;;;;;4967960;28;20031;-71
2023/02/23 07:22:13;;;;;;;35.70;13.52;;;9.60;99.90;;;;;;4963119;28;20082;-72
2023/02/23 07:24:39;;;;;;;27.38;12.18;;;9.60;99.90;;;;;;4968241;28;20050;-72
2023/02/23 07:27:05;;;;;;;42.05;12.65;;;9.60;99.90;;;;;;4947908;28;20027;-73
2023/02/23 07:29:31;;;;;;;41.97;15.25;;;9.70;99.90;;;;;;4959791;28;20089;-71
2023/02/23 07:31:56;;;;;;;37.67;12.75;;;9.70;99.90;;;;;;4958338;28;20125;-73
2023/02/23 07:34:22;;;;;;;33.88;12.80;;;9.70;99.90;;;;;;4964466;28;20125;-73
2023/02/23 07:36:48;;;;;;;31.40;12.77;;;9.70;99.90;;;;;;4965754;28;20487;-71
2023/02/23 07:39:14;;;;;;;23.85;11.95;;;9.70;99.90;;;;;;4964837;28;20451;-72
2023/02/23 07:41:40;;;;;;;39.63;13.10;;;9.70;99.90;;;;;;4965946;28;20037;-72
2023/02/23 07:44:06;;;;;;;30.35;13.75;;;9.80;99.90;;;;;;4967547;28;20030;-72
2023/02/23 07:46:31;;;;;;;32.38;13.20;;;9.90;99.90;;;;;;4966093;28;20113;-72
2023/02/23 07:48:57;;;;;;;25.48;12.25;;;9.90;99.90;;;;;;4955287;28;20055;-72
2023/02/23 07:51:23;;;;;;;30.80;12.73;;;9.90;99.90;;;;;;4954371;28;20031;-72
2023/02/23 07:53:49;;;;;;;31.70;12.15;;;9.90;99.90;;;;;;4964748;28;20491;-72
2023/02/23 07:56:15;;;;;;;33.75;14.75;;;10.00;99.90;;;;;;4965954;28;20034;-72
2023/02/23 07:58:43;;;;;;;31.17;13.07;;;10.20;99.90;;;;;;4963135;28;20065;-71
2023/02/23 08:01:11;;;;;;;26.40;11.57;;;10.20;99.90;;;;;;4968640;28;20027;-71
2023/02/23 08:03:38;;;;;;;19.23;10.93;;;10.30;99.90;;;;;;4964354;28;20113;-71
2023/02/23 08:06:04;;;;;;;30.33;12.07;;;10.20;99.90;;;;;;4963813;28;20119;-71
2023/02/23 08:08:30;;;;;;;31.17;12.65;;;10.20;99.90;;;;;;4960633;28;20031;-71
2023/02/23 08:11:01;;;;;;;19.17;10.00;;;10.30;99.90;;;;;;4950281;28;20399;-71
2023/02/23 08:13:28;;;;;;;23.83;9.93;;;10.40;99.90;;;;;;4961044;28;20487;-71
2023/02/23 08:15:54;;;;;;;27.17;11.23;;;10.20;99.90;;;;;;4949817;28;20046;-71
2023/02/23 08:18:20;;;;;;;25.50;10.43;;;10.30;99.90;;;;;;4963018;28;20023;-71
2023/02/23 08:20:46;;;;;;;27.23;11.80;;;10.40;99.90;;;;;;4966906;28;20039;-71
2023/02/23 08:23:12;;;;;;;20.42;10.02;;;10.30;99.90;;;;;;4962990;28;20117;-71
2023/02/23 08:25:37;;;;;;;25.40;11.23;;;10.30;99.90;;;;;;4969415;28;20110;-71
2023/02/23 08:28:05;;;;;;;19.35;9.55;;;10.20;99.90;;;;;;4960573;28;20050;-71
2023/02/23 08:30:32;;;;;;;19.30;8.95;;;10.20;99.90;;;;;;4970548;28;20038;-77
2023/02/23 08:32:58;;;;;;;22.60;10.30;;;10.40;99.90;;;;;;4961345;28;20074;-73
2023/02/23 08:35:24;;;;;;;21.52;10.40;;;10.30;99.90;;;;;;4956114;28;20533;-72
2023/02/23 08:37:50;;;;;;;21.42;8.88;;;10.40;99.90;;;;;;4959936;28;20113;-72
2023/02/23 08:40:17;;;;;;;23.83;10.30;;;10.30;99.90;;;;;;4952326;28;20110;-76
2023/02/23 08:42:43;;;;;;;27.55;10.73;;;10.30;99.90;;;;;;4959666;28;20024;-73
2023/02/23 08:45:10;;;;;;;25.30;10.43;;;10.50;99.90;;;;;;4959239;28;20027;-73
2023/02/23 08:47:36;;;;;;;32.63;10.60;;;10.50;99.90;;;;;;4960008;28;20031;-74
2023/02/23 08:50:04;;;;;;;22.48;9.82;;;10.70;99.90;;;;;;4967627;28;20033;-74
2023/02/23 08:52:30;;;;;;;23.30;10.65;;;10.60;99.90;;;;;;4959795;28;20487;-73
2023/02/23 08:54:56;;;;;;;17.92;9.00;;;10.70;99.90;;;;;;4969322;28;20042;-74
2023/02/23 08:57:22;;;;;;;19.33;9.07;;;10.70;99.90;;;;;;4961012;28;20034;-74
2023/02/23 08:59:48;;;;;;;31.35;9.63;;;10.90;99.90;;;;;;4967725;28;20382;-74
2023/02/23 09:02:14;;;;;;;16.83;7.10;;;11.00;99.90;;;;;;4964248;28;20046;-74
2023/02/23 09:04:43;;;;;;;17.92;8.80;;;11.10;99.90;;;;;;4966874;28;20035;-74
2023/02/23 09:07:14;;;;;;;21.55;8.52;;;11.30;99.90;;;;;;4971778;28;20066;-72
2023/02/23 09:09:39;;;;;;;;;;;11.40;99.90;;;;;;4970745;28;20037;-73
2023/02/23 09:12:05;;;;;;;22.05;7.25;;;11.60;99.90;;;;;;4960290;28;19914;-73
2023/02/23 09:14:31;;;;;;;18.02;7.53;;;11.40;99.90;;;;;;4964093;28;20465;-74
2023/02/23 09:16:57;;;;;;;21.27;7.90;;;11.30;99.90;;;;;;4966646;28;20073;-72
2023/02/23 09:19:26;;;;;;;15.30;7.65;;;11.40;99.90;;;;;;4962352;28;20090;-74
2023/02/23 09:21:52;;;;;;;15.88;7.00;;;11.70;99.90;;;;;;4964539;28;20096;-73
2023/02/23 09:24:20;;;;;;;15.82;7.00;;;12.00;99.90;;;;;;4963560;28;20054;-73
2023/02/23 09:26:48;;;;;;;20.33;8.52;;;12.00;99.90;;;;;;4959649;28;20869;-73
2023/02/23 09:29:14;;;;;;;19.30;7.78;;;11.80;99.90;;;;;;4963270;28;20510;-73
2023/02/23 09:31:39;;;;;;;17.83;7.30;;;12.00;99.90;;;;;;4961891;28;20039;-74
2023/02/23 09:34:08;;;;;;;18.42;7.07;;;12.00;99.90;;;;;;4988420;23;20054;-75
2023/02/23 09:36:34;;;;;;;13.98;6.50;;;12.20;99.90;;;;;;4989298;28;20022;-73
2023/02/23 09:39:00;;;;;;;15.85;7.32;;;12.50;99.90;;;;;;4982730;28;20042;-74
2023/02/23 09:41:34;;;;;;;16.63;6.65;;;12.60;99.90;;;;;;4982932;28;20023;-73
2023/02/23 09:44:15;;;;;;;19.33;5.53;;;12.70;99.90;;;;;;4983178;28;20193;-79
2023/02/23 09:47:54;;;;;;;17.88;5.65;;;12.90;99.90;;;;;;4982915;28;20125;-75
2023/02/23 09:50:24;;;;;;;11.23;5.00;;;12.80;99.90;;;;;;4919087;29;20369;-76
2023/02/23 09:53:26;;;;;;;9.43;4.97;;;13.10;99.90;;;;;;4972217;28;20046;-75
2023/02/23 09:55:57;;;;;;;15.25;6.22;;;13.00;99.90;;;;;;4978846;28;20380;-75
2023/02/23 09:58:33;;;;;;;12.02;5.03;;;13.10;99.90;;;;;;4983931;28;20102;-75
2023/02/23 10:01:39;;;;;;;10.52;4.32;;;13.00;99.90;;;;;;4980708;28;20947;-74
2023/02/23 10:04:20;;;;;;;15.80;5.03;;;13.10;99.90;;;;;;4974264;28;20383;-75
2023/02/23 10:07:03;;;;;;;15.55;6.45;;;13.10;99.90;;;;;;4980421;28;20118;-76
2023/02/23 10:10:13;;;;;;;10.55;4.75;;;13.00;99.90;;;;;;4977489;28;20031;-75
2023/02/23 10:12:58;;;;;;;8.82;4.70;;;13.00;99.90;;;;;;4983248;28;20074;-74
2023/02/23 10:16:02;;;;;;;13.60;5.00;;;13.10;99.90;;;;;;4983242;28;20136;-75
2023/02/23 10:18:59;;;;;;;12.00;5.60;;;13.30;99.90;;;;;;4979533;28;20133;-73
2023/02/23 10:21:37;;;;;;;16.80;6.65;;;13.30;99.90;;;;;;4979858;28;20029;-69
2023/02/23 10:24:19;;;;;;;22.73;5.65;;;13.50;99.90;;;;;;4981932;28;20031;-69
2023/02/23 10:27:06;;;;;;;14.45;6.28;;;13.60;99.90;;;;;;4979228;28;20554;-74
2023/02/23 10:29:59;;;;;;;16.13;5.78;;;13.40;99.90;;;;;;4982751;28;20413;-80
2023/02/23 10:32:49;;;;;;;12.75;5.72;;;13.50;99.90;;;;;;4970059;28;20026;-74
2023/02/23 10:35:19;;;;;;;15.43;5.78;;;13.40;99.90;;;;;;4965431;28;20042;-75
2023/02/23 10:37:47;;;;;;;18.10;5.97;;;13.00;99.90;;;;;;4982432;28;20855;-74
2023/02/23 10:40:16;;;;;;;13.35;5.53;;;13.20;99.90;;;;;;4989754;28;20054;-74
2023/02/23 10:42:42;;;;;;;20.52;5.78;;;13.20;99.90;;;;;;4977751;28;20031;-68
2023/02/23 10:45:22;;;;;;;16.50;7.05;;;13.30;99.90;;;;;;4987904;28;20545;-70
2023/02/23 10:48:02;;;;;;;13.02;5.47;;;13.50;99.90;;;;;;4989617;28;20033;-72
2023/02/23 10:50:30;;;;;;;12.30;5.55;;;13.80;99.90;;;;;;4987257;28;20046;-73
2023/02/23 10:53:16;;;;;;;11.75;4.82;;;13.70;99.90;;;;;;4972385;28;20058;-72
2023/02/23 10:55:44;;;;;;;9.63;4.65;;;13.70;99.90;;;;;;4996340;28;20129;-72
2023/02/23 10:58:17;;;;;;;10.68;4.65;;;13.40;99.90;;;;;;4989303;28;20022;-71
2023/02/23 11:01:00;;;;;;;12.73;5.50;;;13.50;99.90;;;;;;4987401;28;20454;-72
2023/02/23 11:03:40;;;;;;;11.98;4.95;;;13.60;99.90;;;;;;4972509;28;20065;-72
2023/02/23 11:06:25;;;;;;;16.80;6.40;;;13.60;99.90;;;;;;4988483;28;20384;-72
2023/02/23 11:08:51;;;;;;;12.93;5.45;;;13.30;99.90;;;;;;4979196;28;20493;-74
2023/02/23 11:11:24;;;;;;;11.32;4.72;;;13.10;99.90;;;;;;4984929;28;20099;-73
2023/02/23 11:13:51;;;;;;;16.88;6.30;;;13.30;99.90;;;;;;4985600;28;20039;-72
2023/02/23 11:16:37;;;;;;;14.25;5.60;;;13.70;99.90;;;;;;4973765;28;20466;-74
2023/02/23 11:19:13;;;;;;;14.40;4.95;;;13.70;99.90;;;;;;4974813;28;20508;-74
2023/02/23 11:21:39;;;;;;;15.18;5.82;;;14.50;99.90;;;;;;4983764;28;20026;-74
2023/02/23 11:24:31;;;;;;;12.60;5.10;;;15.60;99.90;;;;;;4985493;28;20053;-75
2023/02/23 11:27:05;;;;;;;12.32;5.35;;;16.30;99.90;;;;;;4983624;28;20438;-75
2023/02/23 11:29:42;;;;;;;10.73;4.50;;;17.70;99.90;;;;;;4989674;28;20038;-72
2023/02/23 11:32:16;;;;;;;13.05;4.25;;;17.20;99.90;;;;;;4983422;28;20046;-71
2023/02/23 11:34:43;;;;;;;15.30;4.20;;;19.80;99.90;;;;;;4990686;28;20053;-76
2023/02/23 11:37:24;;;;;;;9.55;3.80;;;20.60;98.80;;;;;;4983417;28;20118;-78
2023/02/23 11:39:57;;;;;;;8.70;3.92;;;17.90;99.90;;;;;;4990275;28;20656;-74
2023/02/23 11:42:26;;;;;;;15.25;4.55;;;17.60;99.90;;;;;;4985204;28;20038;-76
2023/02/23 11:45:15;;;;;;;14.18;5.28;;;17.30;99.90;;;;;;4971216;28;20126;-75
2023/02/23 11:47:49;;;;;;;8.73;3.90;;;18.50;99.90;;;;;;4987290;28;20038;-75
2023/02/23 11:50:34;;;;;;;11.13;4.43;;;19.00;99.90;;;;;;4975434;28;20030;-75
2023/02/23 11:53:36;;;;;;;9.38;4.53;;;16.40;99.90;;;;;;4974668;28;20034;-73
2023/02/23 11:56:11;;;;;;;14.18;4.22;;;16.30;99.90;;;;;;4955837;28;20402;-77
2023/02/23 11:58:48;;;;;;;11.13;3.85;;;17.40;99.90;;;;;;4987305;28;20438;-72
2023/02/23 12:01:20;;;;;;;11.15;3.90;;;17.70;99.90;;;;;;4982663;28;20030;-73
2023/02/23 12:03:56;;;;;;;15.45;4.88;;;17.40;99.90;;;;;;4986055;28;20052;-74
2023/02/23 12:06:49;;;;;;;10.52;4.38;;;17.60;99.90;;;;;;4975366;28;20517;-74
2023/02/23 12:09:23;;;;;;;9.70;4.10;;;19.00;99.90;;;;;;4981640;28;20112;-73
2023/02/23 12:12:14;;;;;;;9.40;3.95;;;20.10;99.90;;;;;;4983814;28;20116;-73
2023/02/23 12:14:55;;;;;;;6.95;3.03;;;19.40;98.10;;;;;;4984662;28;20061;-73
2023/02/23 12:17:40;;;;;;;20.35;3.95;;;19.30;97.80;;;;;;4983287;28;20177;-72
2023/02/23 12:20:24;;;;;;;12.27;4.57;;;17.90;99.90;;;;;;4987589;28;20038;-72
2023/02/23 12:23:09;;;;;;;11.70;4.75;;;17.20;99.90;;;;;;4987942;28;20038;-72
2023/02/23 12:25:58;;;;;;;7.13;3.50;;;16.20;99.90;;;;;;4984979;28;20034;-72
2023/02/23 12:28:39;;;;;;;19.85;4.22;;;15.90;99.90;;;;;;4971134;28;20121;-72
2023/02/23 12:31:48;;;;;;;9.67;4.77;;;15.20;99.90;;;;;;4970961;28;20077;-72
2023/02/23 12:34:54;;;;;;;7.78;3.95;;;15.20;99.90;;;;;;4921771;29;20032;-72
2023/02/23 12:37:39;;;;;;;13.10;5.28;;;14.80;99.90;;;;;;4982883;28;20042;-72
2023/02/23 12:40:31;;;;;;;10.02;3.90;;;14.30;99.90;;;;;;4987524;28;20034;-72
2023/02/23 12:43:18;;;;;;;5.47;2.05;;;14.60;99.90;;;;;;4980599;28;20041;-72
2023/02/23 12:45:51;;;;;;;8.73;2.88;;;15.20;99.90;;;;;;4971850;28;20113;-73
2023/02/23 12:49:20;;;;;;;6.82;3.08;;;15.30;99.90;;;;;;4972097;28;20049;-72
2023/02/23 12:51:55;;;;;;;9.10;2.65;;;15.30;99.90;;;;;;4977336;28;20050;-73
2023/02/23 12:54:21;;;;;;;6.38;2.63;;;15.30;99.90;;;;;;4981125;28;20465;-73
2023/02/23 12:57:07;;;;;;;6.40;2.75;;;15.20;99.90;;;;;;4966017;28;20057;-73
2023/02/23 12:59:59;;;;;;;4.72;2.28;;;15.20;99.90;;;;;;4977091;28;20441;-73
2023/02/23 13:02:54;;;;;;;9.55;2.38;;;15.30;99.90;;;;;;4971792;28;20027;-73
2023/02/23 13:05:33;;;;;;;9.70;3.67;;;15.10;99.90;;;;;;4984822;28;20114;-73
2023/02/23 13:08:20;;;;;;;4.97;2.70;;;15.40;99.90;;;;;;4986865;28;20030;-73
2023/02/23 13:11:41;;;;;;;4.97;2.67;;;15.90;99.90;;;;;;4979683;28;20093;-73
2023/02/23 13:14:49;;;;;;;16.35;3.60;;;16.30;99.90;;;;;;4963183;28;20055;-73
2023/02/23 13:17:38;;;;;;;6.22;2.60;;;16.40;99.90;;;;;;4968087;28;20038;-73
2023/02/23 13:20:32;;;;;;;6.40;2.70;;;16.40;99.90;;;;;;4987126;28;20043;-73
2023/02/23 13:23:31;;;;;;;5.82;2.55;;;16.20;99.90;;;;;;4987764;28;20494;-73
2023/02/23 13:26:10;;;;;;;5.25;2.17;;;16.00;99.90;;;;;;4979978;28;20045;-74
2023/02/23 13:29:07;;;;;;;6.10;2.55;;;15.60;99.90;;;;;;4988834;28;20037;-74
2023/02/23 13:31:38;;;;;;;6.45;2.65;;;15.40;99.90;;;;;;4989983;28;20058;-75
2023/02/23 13:34:11;;;;;;;5.50;2.80;;;15.40;99.90;;;;;;4987829;28;20538;-75
2023/02/23 13:36:39;;;;;;;11.82;3.67;;;15.40;99.90;;;;;;4979805;28;20030;-75
2023/02/23 13:39:16;;;;;;;4.43;2.47;;;15.50;99.90;;;;;;4976190;28;20030;-75
2023/02/23 13:42:41;;;;;;;7.35;2.53;;;15.30;99.90;;;;;;4978155;28;20517;-75
2023/02/23 13:45:35;;;;;;;9.45;3.00;;;15.20;99.90;;;;;;4959116;28;20097;-74
2023/02/23 13:48:32;;;;;;;8.43;2.00;;;14.90;99.90;;;;;;4960700;28;20034;-73
2023/02/23 13:51:12;;;;;;;8.35;2.92;;;14.80;99.90;;;;;;4967220;28;20626;-74
2023/02/23 13:53:45;;;;;;;7.32;2.70;;;14.70;99.90;;;;;;4945889;28;20113;-74
2023/02/23 13:56:22;;;;;;;4.80;1.80;;;14.70;99.90;;;;;;4965415;28;20141;-74
2023/02/23 13:59:03;;;;;;;7.10;2.95;;;14.90;99.90;;;;;;4949206;28;20041;-74
2023/02/23 14:01:36;;;;;;;10.77;3.25;;;14.90;99.90;;;;;;4957807;28;20090;-74
2023/02/23 14:04:11;;;;;;;6.95;2.97;;;14.90;99.90;;;;;;4933976;28;20162;-74
2023/02/23 14:06:39;;;;;;;6.07;3.10;;;14.80;99.90;;;;;;4966137;28;20031;-73
2023/02/23 14:09:23;;;;;;;8.98;2.95;;;14.90;99.90;;;;;;4970231;28;20070;-76
2023/02/23 14:12:15;;;;;;;5.22;2.78;;;14.90;99.90;;;;;;4950695;28;20042;-74
2023/02/23 14:14:45;;;;;;;6.63;2.53;;;15.00;99.90;;;;;;4959515;28;20514;-74
2023/02/23 14:17:34;;;;;;;15.57;2.92;;;14.90;99.90;;;;;;4973491;28;20057;-74
2023/02/23 14:20:18;;;;;;;5.93;2.63;;;14.80;99.90;;;;;;4974104;28;20058;-74
2023/02/23 14:23:21;;;;;;;7.55;2.50;;;14.80;99.90;;;;;;4974618;28;20729;-75
2023/02/23 14:26:12;;;;;;;13.15;2.97;;;14.90;99.90;;;;;;4982104;28;20045;-74
2023/02/23 14:28:40;;;;;;;10.77;3.10;;;14.90;99.90;;;;;;4983703;28;20023;-76
2023/02/23 14:31:11;;;;;;;9.40;2.88;;;14.90;99.90;;;;;;4988942;28;20053;-76
2023/02/23 14:33:40;;;;;;;9.25;2.88;;;14.90;99.90;;;;;;4987047;28;20038;-75
2023/02/23 14:36:21;;;;;;;12.52;2.85;;;14.80;99.90;;;;;;4975109;28;20089;-76